sensor_id;sensor_type;location;lat;lon;timestamp;pressure;altitude;pressure_sealevel;temperature;humidity
36304;BME280;22335;49.800;8.596;2023-04-16T00:02:05;100554.59;;;14.63;51.83
36304;BME280;22335;49.800;8.596;2023-04-16T00:08:49;100546.34;;;14.63;52.10
36304;BME280;22335;49.800;8.596;2023-04-16T00:15:34;100554.41;;;14.60;52.16
36304;BME280;22335;49.800;8.596;2023-04-16T00:22:17;100553.47;;;14.64;51.87
36304;BME280;22335;49.800;8.596;2023-04-16T00:29:00;100552.44;;;14.74;51.83
36304;BME280;22335;49.800;8.596;2023-04-16T00:35:45;100550.69;;;14.78;51.79
36304;BME280;22335;49.800;8.596;2023-04-16T00:42:29;100559.44;;;14.80;51.90
36304;BME280;22335;49.800;8.596;2023-04-16T00:49:12;100562.16;;;14.71;52.07
36304;BME280;22335;49.800;8.596;2023-04-16T00:55:58;100562.63;;;14.73;51.72
36304;BME280;22335;49.800;8.596;2023-04-16T01:02:43;100566.19;;;14.74;52.01
36304;BME280;22335;49.800;8.596;2023-04-16T01:09:27;100573.53;;;14.79;51.79
36304;BME280;22335;49.800;8.596;2023-04-16T01:16:11;100571.69;;;14.74;52.06
36304;BME280;22335;49.800;8.596;2023-04-16T01:22:56;100569.53;;;14.85;51.94
36304;BME280;22335;49.800;8.596;2023-04-16T01:29:40;100574.53;;;14.83;51.95
36304;BME280;22335;49.800;8.596;2023-04-16T01:36:24;100578.44;;;14.82;51.67
36304;BME280;22335;49.800;8.596;2023-04-16T01:43:10;100587.50;;;14.82;51.99
36304;BME280;22335;49.800;8.596;2023-04-16T01:49:53;100595.13;;;14.85;51.83
36304;BME280;22335;49.800;8.596;2023-04-16T01:56:36;100598.69;;;14.86;51.98
36304;BME280;22335;49.800;8.596;2023-04-16T02:03:21;100595.06;;;14.76;52.14
36304;BME280;22335;49.800;8.596;2023-04-16T02:10:06;100599.22;;;14.74;52.36
36304;BME280;22335;49.800;8.596;2023-04-16T02:16:52;100597.72;;;14.68;52.55
36304;BME280;22335;49.800;8.596;2023-04-16T02:23:54;100593.78;;;14.46;52.88
36304;BME280;22335;49.800;8.596;2023-04-16T02:30:42;100598.66;;;14.49;52.49
36304;BME280;22335;49.800;8.596;2023-04-16T02:37:27;100598.88;;;14.53;52.50
36304;BME280;22335;49.800;8.596;2023-04-16T02:44:12;100612.84;;;14.57;52.45
36304;BME280;22335;49.800;8.596;2023-04-16T03:05:59;100612.13;;;14.65;52.24
36304;BME280;22335;49.800;8.596;2023-04-16T03:12:42;100613.34;;;14.59;52.61
36304;BME280;22335;49.800;8.596;2023-04-16T03:19:25;100615.97;;;14.64;52.50
36304;BME280;22335;49.800;8.596;2023-04-16T03:26:10;100618.63;;;14.69;52.40
36304;BME280;22335;49.800;8.596;2023-04-16T03:32:53;100621.59;;;14.72;52.62
36304;BME280;22335;49.800;8.596;2023-04-16T03:39:36;100628.84;;;14.68;52.53
36304;BME280;22335;49.800;8.596;2023-04-16T03:46:21;100622.00;;;14.66;52.46
36304;BME280;22335;49.800;8.596;2023-04-16T03:53:05;100626.69;;;14.65;52.67
36304;BME280;22335;49.800;8.596;2023-04-16T03:59:50;100626.16;;;14.77;52.39
36304;BME280;22335;49.800;8.596;2023-04-16T04:06:35;100636.25;;;14.82;52.53
36304;BME280;22335;49.800;8.596;2023-04-16T04:13:18;100635.41;;;14.95;52.33
36304;BME280;22335;49.800;8.596;2023-04-16T04:20:03;100641.44;;;14.97;52.28
36304;BME280;22335;49.800;8.596;2023-04-16T04:26:48;100643.81;;;14.90;52.48
36304;BME280;22335;49.800;8.596;2023-04-16T04:33:31;100647.28;;;14.82;52.22
36304;BME280;22335;49.800;8.596;2023-04-16T04:40:15;100656.75;;;14.75;52.44
36304;BME280;22335;49.800;8.596;2023-04-16T04:47:01;100657.06;;;14.74;52.58
36304;BME280;22335;49.800;8.596;2023-04-16T04:53:44;100670.81;;;14.74;52.47
36304;BME280;22335;49.800;8.596;2023-04-16T05:00:28;100665.41;;;14.83;52.66
36304;BME280;22335;49.800;8.596;2023-04-16T05:07:13;100676.13;;;14.70;52.49
36304;BME280;22335;49.800;8.596;2023-04-16T05:13:57;100684.19;;;14.81;52.61
36304;BME280;22335;49.800;8.596;2023-04-16T05:20:40;100691.09;;;14.92;52.51
36304;BME280;22335;49.800;8.596;2023-04-16T05:27:25;100692.13;;;14.96;52.29
36304;BME280;22335;49.800;8.596;2023-04-16T05:34:08;100706.22;;;14.81;52.75
36304;BME280;22335;49.800;8.596;2023-04-16T05:40:52;100712.41;;;14.86;52.73
36304;BME280;22335;49.800;8.596;2023-04-16T05:47:36;100720.09;;;14.75;52.81
36304;BME280;22335;49.800;8.596;2023-04-16T05:54:19;100728.75;;;14.83;52.46
36304;BME280;22335;49.800;8.596;2023-04-16T06:01:03;100733.84;;;14.89;52.58
36304;BME280;22335;49.800;8.596;2023-04-16T06:07:48;100735.19;;;15.06;52.41
36304;BME280;22335;49.800;8.596;2023-04-16T06:14:32;100735.03;;;15.11;52.33
36304;BME280;22335;49.800;8.596;2023-04-16T06:21:15;100729.00;;;15.22;52.27
36304;BME280;22335;49.800;8.596;2023-04-16T06:28:00;100736.75;;;15.34;52.23
36304;BME280;22335;49.800;8.596;2023-04-16T06:34:43;100730.72;;;15.32;52.05
36304;BME280;22335;49.800;8.596;2023-04-16T06:41:26;100744.34;;;15.15;52.44
36304;BME280;22335;49.800;8.596;2023-04-16T06:48:11;100744.16;;;14.97;52.53
36304;BME280;22335;49.800;8.596;2023-04-16T06:54:55;100749.56;;;14.75;52.76
36304;BME280;22335;49.800;8.596;2023-04-16T07:01:39;100744.44;;;14.55;53.38
36304;BME280;22335;49.800;8.596;2023-04-16T07:08:23;100756.84;;;14.38;53.40
36304;BME280;22335;49.800;8.596;2023-04-16T07:15:07;100761.59;;;14.33;53.76
36304;BME280;22335;49.800;8.596;2023-04-16T07:21:51;100763.97;;;14.39;53.14
36304;BME280;22335;49.800;8.596;2023-04-16T07:28:36;100762.13;;;14.48;53.50
36304;BME280;22335;49.800;8.596;2023-04-16T07:35:19;100768.44;;;14.35;53.94
36304;BME280;22335;49.800;8.596;2023-04-16T07:42:02;100782.25;;;14.16;54.50
36304;BME280;22335;49.800;8.596;2023-04-16T07:48:47;100779.53;;;13.97;54.70
36304;BME280;22335;49.800;8.596;2023-04-16T07:55:30;100792.69;;;14.00;54.82
36304;BME280;22335;49.800;8.596;2023-04-16T08:02:14;100787.63;;;14.07;54.69
36304;BME280;22335;49.800;8.596;2023-04-16T08:09:00;100798.09;;;14.05;54.84
36304;BME280;22335;49.800;8.596;2023-04-16T08:15:44;100810.66;;;14.12;54.67
36304;BME280;22335;49.800;8.596;2023-04-16T08:22:27;100808.25;;;14.24;54.72
36304;BME280;22335;49.800;8.596;2023-04-16T08:29:12;100820.72;;;14.35;54.74
36304;BME280;22335;49.800;8.596;2023-04-16T08:35:55;100823.50;;;14.49;54.48
36304;BME280;22335;49.800;8.596;2023-04-16T08:42:39;100817.38;;;14.38;55.26
36304;BME280;22335;49.800;8.596;2023-04-16T08:49:28;100826.97;;;14.41;54.72
36304;BME280;22335;49.800;8.596;2023-04-16T08:56:11;100835.88;;;14.51;54.74
36304;BME280;22335;49.800;8.596;2023-04-16T09:02:55;100838.75;;;14.60;54.70
36304;BME280;22335;49.800;8.596;2023-04-16T09:09:40;100837.06;;;14.78;54.63
36304;BME280;22335;49.800;8.596;2023-04-16T09:16:24;100837.69;;;14.89;54.35
36304;BME280;22335;49.800;8.596;2023-04-16T09:23:07;100850.97;;;15.01;54.35
36304;BME280;22335;49.800;8.596;2023-04-16T09:29:52;100851.88;;;15.10;54.43
36304;BME280;22335;49.800;8.596;2023-04-16T09:36:35;100851.59;;;15.25;54.04
36304;BME280;22335;49.800;8.596;2023-04-16T09:43:19;100854.16;;;15.21;54.42
36304;BME280;22335;49.800;8.596;2023-04-16T09:50:04;100864.25;;;15.26;54.26
36304;BME280;22335;49.800;8.596;2023-04-16T09:56:48;100859.03;;;15.38;54.27
36304;BME280;22335;49.800;8.596;2023-04-16T10:03:32;100869.25;;;15.52;54.12
36304;BME280;22335;49.800;8.596;2023-04-16T10:10:17;100874.34;;;15.44;54.26
36304;BME280;22335;49.800;8.596;2023-04-16T10:17:02;100880.28;;;15.52;54.20
36304;BME280;22335;49.800;8.596;2023-04-16T10:23:46;100879.84;;;15.58;54.03
36304;BME280;22335;49.800;8.596;2023-04-16T10:30:31;100892.50;;;15.59;54.19
36304;BME280;22335;49.800;8.596;2023-04-16T10:37:15;100900.50;;;15.75;54.12
36304;BME280;22335;49.800;8.596;2023-04-16T10:44:05;100891.19;;;15.84;53.85
36304;BME280;22335;49.800;8.596;2023-04-16T10:50:54;100888.84;;;15.78;54.06
36304;BME280;22335;49.800;8.596;2023-04-16T10:57:38;100889.03;;;15.81;54.12
36304;BME280;22335;49.800;8.596;2023-04-16T11:04:25;100889.84;;;15.82;54.31
36304;BME280;22335;49.800;8.596;2023-04-16T11:11:12;100890.03;;;15.85;54.35
36304;BME280;22335;49.800;8.596;2023-04-16T11:17:55;100894.31;;;15.91;54.21
36304;BME280;22335;49.800;8.596;2023-04-16T11:24:38;100888.69;;;15.97;54.28
36304;BME280;22335;49.800;8.596;2023-04-16T11:31:23;100899.94;;;16.00;54.38
36304;BME280;22335;49.800;8.596;2023-04-16T11:38:07;100900.53;;;15.97;54.46
36304;BME280;22335;49.800;8.596;2023-04-16T11:44:51;100895.53;;;15.99;54.37
36304;BME280;22335;49.800;8.596;2023-04-16T11:51:40;100891.72;;;16.09;54.33
36304;BME280;22335;49.800;8.596;2023-04-16T11:58:23;100898.25;;;16.13;54.31
36304;BME280;22335;49.800;8.596;2023-04-16T12:05:24;100898.56;;;16.11;54.38
36304;BME280;22335;49.800;8.596;2023-04-16T12:12:25;100896.81;;;16.16;54.75
36304;BME280;22335;49.800;8.596;2023-04-16T12:19:11;100909.16;;;15.96;55.14
36304;BME280;22335;49.800;8.596;2023-04-16T12:25:55;100910.88;;;15.91;55.23
36304;BME280;22335;49.800;8.596;2023-04-16T12:32:45;100906.09;;;15.83;55.42
36304;BME280;22335;49.800;8.596;2023-04-16T12:39:29;100914.81;;;15.77;55.75
36304;BME280;22335;49.800;8.596;2023-04-16T12:46:12;100912.34;;;15.75;55.80
36304;BME280;22335;49.800;8.596;2023-04-16T12:52:57;100913.56;;;15.69;56.10
36304;BME280;22335;49.800;8.596;2023-04-16T12:59:41;100917.72;;;15.66;56.43
36304;BME280;22335;49.800;8.596;2023-04-16T13:06:24;100913.06;;;15.67;56.28
36304;BME280;22335;49.800;8.596;2023-04-16T13:13:09;100911.72;;;15.78;56.17
36304;BME280;22335;49.800;8.596;2023-04-16T13:19:52;100922.66;;;15.83;56.07
36304;BME280;22335;49.800;8.596;2023-04-16T13:26:36;100922.94;;;15.82;56.02
36304;BME280;22335;49.800;8.596;2023-04-16T13:33:20;100917.63;;;15.85;56.17
36304;BME280;22335;49.800;8.596;2023-04-16T13:40:04;100924.47;;;15.88;56.38
36304;BME280;22335;49.800;8.596;2023-04-16T13:46:48;100932.44;;;15.89;56.45
36304;BME280;22335;49.800;8.596;2023-04-16T13:53:33;100926.59;;;16.05;55.98
36304;BME280;22335;49.800;8.596;2023-04-16T14:00:18;100929.44;;;16.13;56.08
36304;BME280;22335;49.800;8.596;2023-04-16T14:07:02;100925.75;;;16.18;55.99
36304;BME280;22335;49.800;8.596;2023-04-16T14:13:46;100928.97;;;16.34;56.05
36304;BME280;22335;49.800;8.596;2023-04-16T14:20:30;100928.94;;;16.48;55.87
36304;BME280;22335;49.800;8.596;2023-04-16T14:27:13;100934.13;;;16.49;55.83
36304;BME280;22335;49.800;8.596;2023-04-16T14:33:58;100938.66;;;16.45;55.94
36304;BME280;22335;49.800;8.596;2023-04-16T14:40:42;100937.94;;;16.62;55.72
36304;BME280;22335;49.800;8.596;2023-04-16T14:47:25;100934.44;;;16.70;55.58
36304;BME280;22335;49.800;8.596;2023-04-16T14:54:10;100930.00;;;16.83;55.53
36304;BME280;22335;49.800;8.596;2023-04-16T15:00:53;100935.44;;;16.97;55.32
36304;BME280;22335;49.800;8.596;2023-04-16T15:07:36;100928.03;;;17.06;55.30
36304;BME280;22335;49.800;8.596;2023-04-16T15:14:21;100925.81;;;17.17;55.16
36304;BME280;22335;49.800;8.596;2023-04-16T15:21:04;100930.38;;;17.13;55.12
36304;BME280;22335;49.800;8.596;2023-04-16T15:27:48;100932.34;;;17.21;55.16
36304;BME280;22335;49.800;8.596;2023-04-16T15:34:32;100933.16;;;17.21;55.14
36304;BME280;22335;49.800;8.596;2023-04-16T15:41:16;100938.50;;;17.18;54.97
36304;BME280;22335;49.800;8.596;2023-04-16T15:47:59;100938.22;;;17.28;54.87
36304;BME280;22335;49.800;8.596;2023-04-16T15:54:44;100948.84;;;17.43;54.81
36304;BME280;22335;49.800;8.596;2023-04-16T16:01:27;100937.69;;;17.57;54.66
36304;BME280;22335;49.800;8.596;2023-04-16T16:08:19;100938.41;;;17.71;54.55
36304;BME280;22335;49.800;8.596;2023-04-16T16:15:04;100944.75;;;17.72;54.46
36304;BME280;22335;49.800;8.596;2023-04-16T16:21:48;100941.00;;;17.77;54.42
36304;BME280;22335;49.800;8.596;2023-04-16T16:28:31;100950.00;;;17.82;54.48
36304;BME280;22335;49.800;8.596;2023-04-16T16:35:19;100948.38;;;17.81;54.34
36304;BME280;22335;49.800;8.596;2023-04-16T16:42:02;100960.56;;;17.80;54.53
36304;BME280;22335;49.800;8.596;2023-04-16T16:48:46;100955.19;;;17.75;54.35
36304;BME280;22335;49.800;8.596;2023-04-16T16:55:31;100852.59;;;17.05;54.45
36304;BME280;22335;49.800;8.596;2023-04-16T17:02:15;100965.06;;;17.67;54.56
36304;BME280;22335;49.800;8.596;2023-04-16T17:08:58;100968.63;;;17.59;54.65
36304;BME280;22335;49.800;8.596;2023-04-16T17:15:43;100972.97;;;17.51;54.57
36304;BME280;22335;49.800;8.596;2023-04-16T17:22:26;100975.97;;;17.33;54.71
36304;BME280;22335;49.800;8.596;2023-04-16T17:29:09;100987.78;;;17.16;55.02
36304;BME280;22335;49.800;8.596;2023-04-16T17:35:54;100987.19;;;17.05;55.06
36304;BME280;22335;49.800;8.596;2023-04-16T17:42:38;100996.00;;;17.07;54.83
36304;BME280;22335;49.800;8.596;2023-04-16T17:49:21;100998.38;;;17.00;54.79
36304;BME280;22335;49.800;8.596;2023-04-16T17:56:06;101009.13;;;17.01;54.81
36304;BME280;22335;49.800;8.596;2023-04-16T18:02:50;101015.66;;;17.05;54.67
36304;BME280;22335;49.800;8.596;2023-04-16T18:09:34;101013.50;;;17.02;54.86
36304;BME280;22335;49.800;8.596;2023-04-16T18:16:19;101026.97;;;16.95;54.96
36304;BME280;22335;49.800;8.596;2023-04-16T18:23:02;101032.41;;;16.87;54.87
36304;BME280;22335;49.800;8.596;2023-04-16T18:29:45;101030.97;;;16.89;54.67
36304;BME280;22335;49.800;8.596;2023-04-16T18:36:31;101042.78;;;16.81;54.88
36304;BME280;22335;49.800;8.596;2023-04-16T18:43:14;101039.91;;;16.86;54.64
36304;BME280;22335;49.800;8.596;2023-04-16T18:49:57;101046.50;;;16.99;54.37
36304;BME280;22335;49.800;8.596;2023-04-16T18:56:42;101048.53;;;17.07;54.23
36304;BME280;22335;49.800;8.596;2023-04-16T19:03:26;101056.66;;;17.12;54.13
36304;BME280;22335;49.800;8.596;2023-04-16T19:10:09;101060.06;;;16.87;54.25
36304;BME280;22335;49.800;8.596;2023-04-16T19:16:54;101067.66;;;16.67;54.64
36304;BME280;22335;49.800;8.596;2023-04-16T19:23:37;101062.75;;;16.50;54.67
36304;BME280;22335;49.800;8.596;2023-04-16T19:30:21;101062.69;;;16.28;54.92
36304;BME280;22335;49.800;8.596;2023-04-16T19:37:05;101068.84;;;16.11;55.08
36304;BME280;22335;49.800;8.596;2023-04-16T19:43:48;101072.94;;;15.86;55.33
36304;BME280;22335;49.800;8.596;2023-04-16T19:50:32;101086.53;;;15.63;55.69
36304;BME280;22335;49.800;8.596;2023-04-16T19:57:16;101094.78;;;15.50;55.89
36304;BME280;22335;49.800;8.596;2023-04-16T20:04:01;101089.47;;;15.39;56.01
36304;BME280;22335;49.800;8.596;2023-04-16T20:10:44;101097.22;;;15.37;55.77
36304;BME280;22335;49.800;8.596;2023-04-16T20:17:29;101098.84;;;15.38;55.94
36304;BME280;22335;49.800;8.596;2023-04-16T20:24:12;101097.50;;;15.36;56.08
36304;BME280;22335;49.800;8.596;2023-04-16T20:30:55;101098.03;;;15.38;55.81
36304;BME280;22335;49.800;8.596;2023-04-16T20:37:40;101095.59;;;15.36;55.85
36304;BME280;22335;49.800;8.596;2023-04-16T20:44:23;101092.75;;;15.22;56.30
36304;BME280;22335;49.800;8.596;2023-04-16T20:51:13;101089.56;;;15.15;56.41
36304;BME280;22335;49.800;8.596;2023-04-16T20:57:57;101084.72;;;15.07;56.64
36304;BME280;22335;49.800;8.596;2023-04-16T21:04:42;101088.69;;;15.01;56.32
36304;BME280;22335;49.800;8.596;2023-04-16T21:11:25;101082.16;;;14.97;56.57
36304;BME280;22335;49.800;8.596;2023-04-16T21:18:14;101082.22;;;14.92;56.43
36304;BME280;22335;49.800;8.596;2023-04-16T21:24:59;101085.06;;;14.87;56.96
36304;BME280;22335;49.800;8.596;2023-04-16T21:31:42;101080.16;;;14.84;56.84
36304;BME280;22335;49.800;8.596;2023-04-16T21:38:27;101088.25;;;14.75;57.10
36304;BME280;22335;49.800;8.596;2023-04-16T21:45:10;100939.53;;;13.80;57.07
36304;BME280;22335;49.800;8.596;2023-04-16T21:51:54;101080.00;;;14.75;57.11
36304;BME280;22335;49.800;8.596;2023-04-16T21:58:40;101087.28;;;14.85;57.15
36304;BME280;22335;49.800;8.596;2023-04-16T22:05:24;101086.38;;;14.89;56.94
36304;BME280;22335;49.800;8.596;2023-04-16T22:12:07;101079.38;;;14.97;56.69
36304;BME280;22335;49.800;8.596;2023-04-16T22:18:52;101083.69;;;15.03;56.92
36304;BME280;22335;49.800;8.596;2023-04-16T22:25:36;101081.47;;;15.05;56.81
36304;BME280;22335;49.800;8.596;2023-04-16T22:32:20;101081.22;;;15.02;56.90
36304;BME280;22335;49.800;8.596;2023-04-16T22:39:05;101090.25;;;14.88;57.23
36304;BME280;22335;49.800;8.596;2023-04-16T22:45:48;101085.66;;;14.84;57.16
36304;BME280;22335;49.800;8.596;2023-04-16T22:52:41;101083.19;;;14.82;57.17
36304;BME280;22335;49.800;8.596;2023-04-16T22:59:26;101081.47;;;14.86;57.24
36304;BME280;22335;49.800;8.596;2023-04-16T23:06:09;101082.53;;;14.90;57.25
36304;BME280;22335;49.800;8.596;2023-04-16T23:12:52;101080.53;;;14.96;57.33
36304;BME280;22335;49.800;8.596;2023-04-16T23:19:40;101080.81;;;14.94;57.19
36304;BME280;22335;49.800;8.596;2023-04-16T23:26:24;101087.50;;;15.07;57.01
36304;BME280;22335;49.800;8.596;2023-04-16T23:33:07;101079.97;;;15.13;56.97
36304;BME280;22335;49.800;8.596;2023-04-16T23:39:52;101076.00;;;15.19;56.84
36304;BME280;22335;49.800;8.596;2023-04-16T23:46:35;101083.47;;;15.18;56.88
36304;BME280;22335;49.800;8.596;2023-04-16T23:53:19;101078.34;;;14.93;57.15
